createdAt,value
2018-12-16T00:00:07.917Z,24.33
2018-12-16T00:05:12.674Z,24.37
2018-12-16T00:10:17.198Z,23.57
2018-12-16T00:15:21.708Z,22.47
2018-12-16T00:20:26.233Z,25.00
2018-12-16T00:25:30.773Z,22.67
2018-12-16T00:30:35.298Z,21.83
2018-12-16T00:35:39.846Z,23.00
2018-12-16T00:40:44.357Z,21.83
2018-12-16T00:45:48.877Z,21.60
2018-12-16T00:50:53.398Z,20.77
2018-12-16T00:55:57.910Z,19.40
2018-12-16T01:01:02.421Z,19.87
2018-12-16T01:06:06.929Z,19.57
2018-12-16T01:11:11.445Z,20.07
2018-12-16T01:16:15.958Z,17.33
2018-12-16T01:21:20.464Z,19.17
2018-12-16T01:26:24.989Z,16.37
2018-12-16T01:31:29.513Z,15.50
2018-12-16T01:36:34.056Z,14.80
2018-12-16T01:41:38.607Z,14.90
2018-12-16T01:46:43.109Z,14.87
2018-12-16T01:51:47.620Z,15.53
2018-12-16T01:56:52.117Z,14.53
2018-12-16T02:01:56.625Z,16.57
2018-12-16T02:07:01.154Z,16.27
2018-12-16T02:12:05.687Z,16.20
2018-12-16T02:17:10.200Z,17.00
2018-12-16T02:22:14.744Z,16.73
2018-12-16T02:27:19.263Z,16.83
2018-12-16T02:32:23.838Z,17.30
2018-12-16T02:37:28.363Z,18.83
2018-12-16T02:42:32.899Z,17.93
2018-12-16T02:47:37.417Z,18.33
2018-12-16T02:52:41.956Z,19.00
2018-12-16T02:57:46.441Z,20.30
2018-12-16T03:02:50.981Z,19.13
2018-12-16T03:07:55.493Z,20.53
2018-12-16T03:12:59.994Z,22.20
2018-12-16T03:18:04.515Z,22.63
2018-12-16T03:23:12.316Z,21.73
2018-12-16T03:28:13.607Z,18.23
2018-12-16T03:33:18.123Z,22.63
2018-12-16T03:38:22.625Z,21.93
2018-12-16T03:43:27.175Z,22.93
2018-12-16T03:48:31.709Z,22.10
2018-12-16T03:53:36.237Z,22.37
2018-12-16T03:58:56.544Z,22.90
2018-12-16T04:04:01.046Z,22.40
2018-12-16T04:09:06.313Z,22.47
2018-12-16T04:14:10.824Z,21.63
2018-12-16T04:19:15.349Z,23.53
2018-12-16T04:24:19.869Z,21.83
2018-12-16T04:29:24.418Z,21.80
2018-12-16T04:34:28.963Z,21.80
2018-12-16T04:39:33.493Z,24.40
2018-12-16T04:44:38.031Z,24.70
2018-12-16T04:49:42.533Z,23.30
2018-12-16T04:54:47.053Z,24.60
2018-12-16T04:59:51.577Z,22.70
2018-12-16T05:04:56.111Z,22.07
2018-12-16T05:10:16.376Z,22.87
2018-12-16T05:15:20.895Z,23.17
2018-12-16T05:20:25.393Z,21.67
2018-12-16T05:25:29.935Z,22.23
2018-12-16T05:30:34.457Z,21.63
2018-12-16T05:35:39.021Z,21.10
2018-12-16T05:40:43.517Z,22.80
2018-12-16T05:45:48.114Z,21.30
2018-12-16T05:50:52.632Z,20.90
2018-12-16T05:55:57.151Z,21.00
2018-12-16T06:01:01.673Z,21.53
2018-12-16T06:06:06.197Z,20.63
2018-12-16T06:11:10.717Z,21.77
2018-12-16T06:16:15.217Z,21.30
2018-12-16T06:21:19.718Z,20.60
2018-12-16T06:26:24.210Z,20.70
2018-12-16T06:31:28.735Z,21.10
2018-12-16T06:36:33.237Z,21.87
2018-12-16T06:41:37.746Z,19.03
2018-12-16T06:46:42.253Z,20.90
2018-12-16T06:51:46.786Z,20.87
2018-12-16T06:56:51.292Z,20.80
2018-12-16T07:01:55.805Z,20.27
2018-12-16T07:07:00.312Z,19.83
2018-12-16T07:12:04.834Z,19.53
2018-12-16T07:17:09.350Z,21.93
2018-12-16T07:22:13.876Z,23.73
2018-12-16T07:27:18.441Z,22.63
2018-12-16T07:32:22.983Z,23.57
2018-12-16T07:37:27.520Z,22.47
2018-12-16T07:42:32.094Z,22.40
2018-12-16T07:47:36.634Z,23.53
2018-12-16T07:52:41.134Z,20.13
2018-12-16T07:57:45.645Z,22.37
2018-12-16T08:02:50.232Z,23.73
2018-12-16T08:07:54.713Z,21.70
2018-12-16T08:12:59.210Z,19.43
2018-12-16T08:18:03.702Z,20.43
2018-12-16T08:23:08.341Z,21.53
2018-12-16T08:28:12.911Z,20.83
2018-12-16T08:33:17.434Z,21.90
2018-12-16T08:38:21.925Z,20.73
2018-12-16T08:43:26.440Z,21.70
2018-12-16T08:48:31.013Z,20.67
2018-12-16T08:53:35.503Z,20.03
2018-12-16T08:58:40.021Z,19.13
2018-12-16T09:03:44.545Z,20.33
2018-12-16T09:08:49.075Z,19.57
2018-12-16T09:13:53.590Z,17.60
2018-12-16T09:18:58.176Z,19.63
2018-12-16T09:24:02.686Z,20.33
2018-12-16T09:29:13.788Z,20.03
2018-12-16T09:34:18.357Z,20.43
2018-12-16T09:39:23.345Z,20.30
2018-12-16T09:44:27.854Z,21.73
2018-12-16T09:49:32.343Z,19.73
2018-12-16T09:54:36.842Z,18.90
2018-12-16T09:59:41.365Z,19.73
2018-12-16T10:04:45.893Z,17.83
2018-12-16T10:09:50.401Z,18.33
2018-12-16T10:14:54.913Z,17.97
2018-12-16T10:19:59.429Z,15.10
2018-12-16T10:25:04.004Z,17.37
2018-12-16T10:30:10.217Z,17.13
2018-12-16T10:35:14.746Z,17.17
2018-12-16T10:40:19.241Z,15.63
2018-12-16T10:45:23.794Z,15.50
2018-12-16T10:50:28.341Z,14.57
2018-12-16T10:55:32.921Z,14.63
2018-12-16T11:00:42.591Z,15.33
2018-12-16T11:05:47.134Z,15.40
2018-12-16T11:10:51.762Z,14.17
2018-12-16T11:15:56.285Z,15.87
2018-12-16T11:21:00.788Z,14.07
2018-12-16T11:26:05.598Z,14.27
2018-12-16T11:31:10.150Z,13.73
2018-12-16T11:36:14.665Z,15.00
2018-12-16T11:41:19.205Z,14.63
2018-12-16T11:46:23.736Z,14.97
2018-12-16T11:51:28.265Z,12.33
2018-12-16T11:56:32.785Z,14.33
2018-12-16T12:01:37.299Z,12.87
2018-12-16T12:06:41.809Z,13.47
2018-12-16T12:11:46.347Z,12.90
2018-12-16T12:16:50.845Z,13.43
2018-12-16T12:21:55.365Z,12.50
2018-12-16T12:26:59.854Z,13.33
2018-12-16T12:32:04.389Z,14.57
2018-12-16T12:37:08.893Z,14.07
2018-12-16T12:42:13.393Z,14.93
2018-12-16T12:47:17.879Z,12.83
2018-12-16T12:52:22.398Z,12.57
2018-12-16T12:57:26.949Z,12.57
2018-12-16T13:02:31.438Z,12.03
2018-12-16T13:07:35.949Z,13.30
2018-12-16T13:12:40.467Z,12.10
2018-12-16T13:17:44.974Z,11.53
2018-12-16T13:22:49.491Z,12.03
2018-12-16T13:27:54.013Z,11.87
2018-12-16T13:32:58.534Z,11.70
2018-12-16T13:38:03.098Z,11.90
2018-12-16T13:43:07.612Z,13.17
2018-12-16T13:48:12.269Z,12.10
2018-12-16T13:53:16.910Z,10.73
2018-12-16T13:58:21.512Z,10.20
2018-12-16T14:03:26.037Z,10.53
2018-12-16T14:08:30.576Z,10.13
2018-12-16T14:13:35.136Z,9.87
2018-12-16T14:18:39.671Z,10.40
2018-12-16T14:23:44.202Z,11.17
2018-12-16T14:28:48.736Z,11.03
2018-12-16T14:33:53.244Z,10.70
2018-12-16T14:38:57.747Z,10.53
2018-12-16T14:44:02.242Z,11.23
2018-12-16T14:49:06.798Z,10.73
2018-12-16T14:54:11.297Z,11.47
2018-12-16T14:59:15.819Z,10.63
2018-12-16T15:04:20.409Z,10.70
2018-12-16T15:09:24.956Z,11.37
2018-12-16T15:14:29.494Z,12.20
2018-12-16T15:19:34.026Z,10.43
2018-12-16T15:24:38.547Z,12.77
2018-12-16T15:29:43.070Z,10.27
2018-12-16T15:34:47.665Z,11.97
2018-12-16T15:39:52.182Z,12.90
2018-12-16T15:44:56.681Z,11.77
2018-12-16T15:50:01.228Z,11.80
2018-12-16T15:55:09.284Z,11.57
2018-12-16T16:00:13.851Z,11.90
2018-12-16T16:05:18.414Z,13.37
2018-12-16T16:10:22.913Z,11.27
2018-12-16T16:15:27.430Z,12.63
2018-12-16T16:20:31.959Z,12.60
2018-12-16T16:25:36.513Z,12.53
2018-12-16T16:30:41.081Z,11.93
2018-12-16T16:35:45.607Z,12.43
2018-12-16T16:40:50.154Z,12.50
2018-12-16T16:45:56.345Z,14.50
2018-12-16T16:51:00.949Z,13.13
2018-12-16T16:56:05.462Z,12.83
2018-12-16T17:01:10.029Z,14.10
2018-12-16T17:06:14.549Z,12.87
2018-12-16T17:11:19.122Z,13.47
2018-12-16T17:16:23.682Z,12.83
2018-12-16T17:21:28.274Z,12.23
2018-12-16T17:26:32.812Z,13.43
2018-12-16T17:31:37.348Z,13.90
2018-12-16T17:36:41.990Z,12.57
2018-12-16T17:41:46.565Z,13.67
2018-12-16T17:46:51.194Z,12.87
2018-12-16T17:51:55.821Z,13.00
2018-12-16T17:57:00.502Z,12.93
2018-12-16T18:02:05.103Z,13.77
2018-12-16T18:07:09.715Z,12.83
2018-12-16T18:12:14.238Z,13.20
2018-12-16T18:17:19.118Z,12.77
2018-12-16T18:22:23.670Z,13.10
2018-12-16T18:27:28.218Z,13.20
2018-12-16T18:32:32.847Z,12.80
2018-12-16T18:37:37.509Z,12.57
2018-12-16T18:42:42.172Z,11.87
2018-12-16T18:47:46.734Z,12.37
2018-12-16T18:52:51.370Z,13.07
2018-12-16T18:57:55.922Z,13.17
2018-12-16T19:03:00.441Z,13.83
2018-12-16T19:08:04.953Z,13.40
2018-12-16T19:13:09.529Z,13.30
2018-12-16T19:18:14.108Z,14.63
2018-12-16T19:23:18.658Z,14.57
2018-12-16T19:28:23.213Z,13.30
2018-12-16T19:33:27.818Z,15.03
2018-12-16T19:38:32.445Z,13.80
2018-12-16T19:43:37.122Z,13.23
2018-12-16T19:48:41.729Z,12.67
2018-12-16T19:53:46.280Z,13.73
2018-12-16T19:58:50.981Z,13.23
2018-12-16T20:04:00.889Z,12.10
2018-12-16T20:09:06.782Z,12.40
2018-12-16T20:14:11.422Z,14.23
2018-12-16T20:19:16.014Z,13.30
2018-12-16T20:24:20.570Z,13.50
2018-12-16T20:29:25.137Z,14.47
2018-12-16T20:34:29.693Z,13.53
2018-12-16T20:39:36.051Z,13.77
2018-12-16T20:44:40.589Z,13.87
2018-12-16T20:49:45.140Z,13.77
2018-12-16T20:54:49.711Z,13.77
2018-12-16T20:59:54.283Z,13.20
2018-12-16T21:04:58.819Z,13.23
2018-12-16T21:10:03.373Z,13.50
2018-12-16T21:15:13.701Z,13.20
2018-12-16T21:20:18.225Z,13.63
2018-12-16T21:25:22.778Z,13.73
2018-12-16T21:30:27.606Z,13.80
2018-12-16T21:35:32.173Z,13.20
2018-12-16T21:40:36.698Z,13.97
2018-12-16T21:45:41.244Z,13.67
2018-12-16T21:50:45.774Z,14.33
2018-12-16T21:55:51.105Z,14.03
2018-12-16T22:00:55.694Z,14.50
2018-12-16T22:06:00.285Z,14.63
2018-12-16T22:11:04.823Z,14.20
2018-12-16T22:16:09.409Z,14.70
2018-12-16T22:21:13.989Z,13.40
2018-12-16T22:26:18.541Z,13.80
2018-12-16T22:31:23.066Z,14.50
2018-12-16T22:36:27.570Z,15.07
2018-12-16T22:41:32.206Z,14.20
2018-12-16T22:46:36.850Z,15.30
2018-12-16T22:51:41.745Z,16.27
2018-12-16T22:56:46.592Z,16.13
2018-12-16T23:01:51.197Z,15.97
2018-12-16T23:06:55.869Z,14.50
2018-12-16T23:12:00.435Z,15.47
2018-12-16T23:17:05.009Z,15.30
2018-12-16T23:22:09.572Z,15.70
2018-12-16T23:27:14.157Z,16.57
2018-12-16T23:32:18.737Z,15.63
2018-12-16T23:37:23.315Z,16.23
2018-12-16T23:42:27.911Z,15.40
2018-12-16T23:47:32.519Z,16.70
2018-12-16T23:52:37.163Z,16.60
2018-12-16T23:57:41.909Z,17.87
